Terminal Aerodrome Forecast
Issued by NWS

Home | Current Version | Previous Version | Text Only | Print | Product List | Glossary On
Versions: 1 2 3 4 5 6 7 8 9 10 11 12 13 14 15 16 17 18 19 20 21
129
FTAK31 PAJN 240232 AAA
TAFAYA
TAF AMD
PAYA 240232Z 2403/2424 09006KT 3SM -SN BR SCT015 BKN030 OVC040
      TEMPO 2403/2407 06006KT 1SM -SN BR BKN015 OVC025
     FM240700 08010KT 1SM -SN BKN006 OVC025 WS020/12040KT
     FM241200 10015G25KT 3SM -RASN OVC012 WS020/13050KT
     FM241800 10015G25KT 4SM -RA BR FEW006 SCT010 OVC025
      AMD LTD TO CLD VIS AND WIND 2403/2409=

USA.gov is the U.S. government's official web portal to all federal, state and local government web resources and services.